CZ-0086 weather

Kunětice
Pardubice Region, Czech Republic

Public forecast

Using degrees Celsius for public forecast. Weather courtesy of forecast.io.

Closest aviation weather report (METAR) to Kunětice

Closest report is Pardubice Airport, 4.4 nm (8.1 km) SW. Retrieved 2020/04/08 12:00 UTC (15 minutes ago):

LKPD 081200Z 10008KT CAVOK 20/M08 Q1027 NOSIG RMK BLU BLU

Closest aviation forecast (TAF) to Kunětice

Closest forecast is Pardubice Airport, 4.4 nm (8.1 km) SW. Retrieved 2020/04/08 12:06 UTC (9 minutes ago):

TAF LKPD 081100Z 0812/0912 12012KT CAVOK TEMPO 0812/0818 14016KT BECMG 0821/0823 VRB02KT